createdAt,value
2017-11-03T00:00:15.572Z,1009.04
2017-11-03T00:01:15.569Z,1009.03
2017-11-03T00:02:15.571Z,1009.05
2017-11-03T00:03:15.554Z,1009.06
2017-11-03T00:04:15.548Z,1009.03
2017-11-03T00:05:15.541Z,1009.03
2017-11-03T00:06:15.541Z,1009.02
2017-11-03T00:07:15.534Z,1009.01
2017-11-03T00:08:15.523Z,1009.02
2017-11-03T00:09:15.523Z,1008.99
2017-11-03T00:10:15.511Z,1009.01
2017-11-03T00:11:15.505Z,1009.01
2017-11-03T00:12:15.501Z,1009.01
2017-11-03T00:13:15.492Z,1009.01
2017-11-03T00:14:15.490Z,1008.99
2017-11-03T00:15:15.488Z,1008.98
2017-11-03T00:16:15.476Z,1008.97
2017-11-03T00:17:15.472Z,1008.95
2017-11-03T00:18:15.465Z,1008.92
2017-11-03T00:19:15.459Z,1008.94
2017-11-03T00:20:15.453Z,1008.92
2017-11-03T00:21:15.451Z,1008.94
2017-11-03T00:22:15.438Z,1008.96
2017-11-03T00:23:15.433Z,1008.97
2017-11-03T00:24:15.459Z,1008.99
2017-11-03T00:25:15.420Z,1008.97
2017-11-03T00:26:15.419Z,1008.99
2017-11-03T00:27:15.409Z,1008.98
2017-11-03T00:28:15.423Z,1008.98
2017-11-03T00:29:15.398Z,1008.96
2017-11-03T00:30:15.392Z,1008.99
2017-11-03T00:31:15.387Z,1008.99
2017-11-03T00:32:15.379Z,1009.01
2017-11-03T00:33:15.372Z,1008.97
2017-11-03T00:34:15.377Z,1009.01
2017-11-03T00:35:15.380Z,1009.01
2017-11-03T00:36:15.358Z,1009.05
2017-11-03T00:37:15.350Z,1009.04
2017-11-03T00:38:15.343Z,1009.02
2017-11-03T00:39:15.335Z,1009.05
2017-11-03T00:40:15.330Z,1009.06
2017-11-03T00:41:15.329Z,1009.05
2017-11-03T00:42:16.308Z,1009.04
2017-11-03T00:43:15.316Z,1009.03
2017-11-03T00:44:15.318Z,1009.05
2017-11-03T00:45:15.302Z,1009.07
2017-11-03T00:46:15.296Z,1009.07
2017-11-03T00:47:15.288Z,1009.07
2017-11-03T00:48:15.280Z,1009.07
2017-11-03T00:49:15.297Z,1009.03
2017-11-03T00:50:15.278Z,1009.04
2017-11-03T00:51:15.269Z,1009.06
2017-11-03T00:52:15.257Z,1009.03
2017-11-03T00:53:15.250Z,1009.00
2017-11-03T00:54:15.245Z,1009.02
2017-11-03T00:55:15.239Z,1009.03
2017-11-03T00:56:15.234Z,1009.01
2017-11-03T00:57:15.226Z,1009.06
2017-11-03T00:58:15.227Z,1009.01
2017-11-03T00:59:15.209Z,1009.03
2017-11-03T01:00:15.208Z,1009.01
2017-11-03T01:01:15.201Z,1009.02
2017-11-03T01:02:15.197Z,1008.99
2017-11-03T01:03:15.189Z,1009.00
2017-11-03T01:04:15.182Z,1009.02
2017-11-03T01:05:15.175Z,1009.02
2017-11-03T01:06:15.171Z,1009.01
2017-11-03T01:07:15.164Z,1009.01
2017-11-03T01:08:15.156Z,1009.01
2017-11-03T01:09:15.148Z,1009.02
2017-11-03T01:10:15.143Z,1009.00
2017-11-03T01:11:15.138Z,1009.02
2017-11-03T01:12:15.131Z,1009.01
2017-11-03T01:13:15.126Z,1008.99
2017-11-03T01:14:15.120Z,1008.98
2017-11-03T01:15:15.111Z,1009.02
2017-11-03T01:16:15.123Z,1009.00
2017-11-03T01:17:15.102Z,1009.00
2017-11-03T01:18:15.092Z,1009.02
2017-11-03T01:19:15.085Z,1009.03
2017-11-03T01:20:15.084Z,1009.03
2017-11-03T01:21:15.074Z,1009.03
2017-11-03T01:22:15.070Z,1009.03
2017-11-03T01:23:15.060Z,1009.02
2017-11-03T01:24:15.062Z,1009.05
2017-11-03T01:25:15.049Z,1009.01
2017-11-03T01:26:15.048Z,1009.00
2017-11-03T01:27:15.036Z,1009.01
2017-11-03T01:28:15.027Z,1009.04
2017-11-03T01:29:15.021Z,1009.00
2017-11-03T01:30:15.020Z,1009.02
2017-11-03T01:31:15.010Z,1009.05
2017-11-03T01:32:15.002Z,1009.04
2017-11-03T01:33:14.996Z,1009.00
2017-11-03T01:34:14.989Z,1008.98
2017-11-03T01:35:14.986Z,1008.98
2017-11-03T01:36:14.982Z,1008.97
2017-11-03T01:37:14.974Z,1008.97
2017-11-03T01:38:14.964Z,1008.98
2017-11-03T01:39:14.960Z,1008.95
2017-11-03T01:40:14.963Z,1008.98
2017-11-03T01:41:14.946Z,1008.97
2017-11-03T01:42:14.937Z,1008.97
2017-11-03T01:43:14.930Z,1009.00
2017-11-03T01:44:14.924Z,1008.98
2017-11-03T01:45:14.920Z,1009.02
2017-11-03T01:46:14.917Z,1009.03
2017-11-03T01:47:14.907Z,1009.03
2017-11-03T01:48:14.900Z,1009.04
2017-11-03T01:49:14.894Z,1009.02
2017-11-03T01:50:14.888Z,1008.99
2017-11-03T01:51:14.880Z,1008.99
2017-11-03T01:52:14.872Z,1008.98
2017-11-03T01:53:14.864Z,1008.99
2017-11-03T01:54:14.859Z,1009.01
2017-11-03T01:55:14.856Z,1008.99
2017-11-03T01:56:14.845Z,1009.03
2017-11-03T01:57:14.842Z,1008.98
2017-11-03T01:58:14.833Z,1008.99
2017-11-03T01:59:14.829Z,1009.01
2017-11-03T02:00:14.821Z,1009.02
2017-11-03T02:01:14.816Z,1009.02
2017-11-03T02:02:14.807Z,1009.02
2017-11-03T02:03:14.799Z,1009.02
2017-11-03T02:04:14.798Z,1009.02
2017-11-03T02:05:14.790Z,1009.04
2017-11-03T02:06:14.782Z,1009.01
2017-11-03T02:07:14.773Z,1009.05
2017-11-03T02:08:14.765Z,1009.03
2017-11-03T02:09:14.762Z,1009.06
2017-11-03T02:10:14.757Z,1009.05
2017-11-03T02:11:14.750Z,1009.06
2017-11-03T02:12:14.739Z,1009.14
2017-11-03T02:13:14.744Z,1009.13
2017-11-03T02:14:14.733Z,1009.12
2017-11-03T02:15:14.722Z,1009.18
2017-11-03T02:16:14.713Z,1009.10
2017-11-03T02:17:14.706Z,1009.14
2017-11-03T02:18:14.705Z,1009.13
2017-11-03T02:19:14.693Z,1009.12
2017-11-03T02:20:14.689Z,1009.14
2017-11-03T02:21:14.682Z,1009.12
2017-11-03T02:22:14.677Z,1009.12
2017-11-03T02:23:14.669Z,1009.14
2017-11-03T02:24:14.663Z,1009.11
2017-11-03T02:25:14.657Z,1009.14
2017-11-03T02:26:14.651Z,1009.12
2017-11-03T02:27:14.642Z,1009.08
2017-11-03T02:28:14.638Z,1009.13
2017-11-03T02:29:14.629Z,1009.06
2017-11-03T02:30:14.622Z,1009.10
2017-11-03T02:31:14.615Z,1009.07
2017-11-03T02:32:14.605Z,1009.10
2017-11-03T02:33:14.602Z,1009.13
2017-11-03T02:34:14.594Z,1009.06
2017-11-03T02:35:14.590Z,1009.09
2017-11-03T02:36:14.583Z,1009.11
2017-11-03T02:37:14.571Z,1009.10
2017-11-03T02:38:14.567Z,1009.07
2017-11-03T02:39:14.563Z,1009.09
2017-11-03T02:40:14.556Z,1009.10
2017-11-03T02:41:14.544Z,1009.09
2017-11-03T02:42:14.534Z,1009.09
2017-11-03T02:43:14.532Z,1009.10
2017-11-03T02:44:14.527Z,1009.03
2017-11-03T02:45:14.519Z,1009.05
2017-11-03T02:46:14.506Z,1009.02
2017-11-03T02:47:14.497Z,1009.04
2017-11-03T02:48:14.505Z,1008.99
2017-11-03T02:49:14.490Z,1009.01
2017-11-03T02:50:14.486Z,1009.02
2017-11-03T02:51:14.476Z,1009.00
2017-11-03T02:52:14.479Z,1008.97
2017-11-03T02:53:14.462Z,1008.96
2017-11-03T02:54:14.461Z,1008.98
2017-11-03T02:55:14.448Z,1008.98
2017-11-03T02:56:14.445Z,1009.00
2017-11-03T02:57:14.439Z,1008.93
2017-11-03T02:58:14.435Z,1008.95
2017-11-03T02:59:14.421Z,1008.96
2017-11-03T03:00:14.417Z,1008.91
2017-11-03T03:01:14.410Z,1008.95
2017-11-03T03:02:14.403Z,1008.89
2017-11-03T03:03:14.397Z,1008.95
2017-11-03T03:04:14.387Z,1008.94
2017-11-03T03:05:14.384Z,1008.91
2017-11-03T03:06:14.379Z,1008.95
2017-11-03T03:07:14.366Z,1008.93
2017-11-03T03:08:14.364Z,1008.93
2017-11-03T03:09:14.353Z,1008.94
2017-11-03T03:10:14.349Z,1008.95
2017-11-03T03:11:14.341Z,1008.97
2017-11-03T03:12:14.336Z,1008.97
2017-11-03T03:13:14.328Z,1008.98
2017-11-03T03:14:14.322Z,1009.01
2017-11-03T03:15:14.314Z,1009.02
2017-11-03T03:16:14.306Z,1008.96
2017-11-03T03:17:14.295Z,1009.07
2017-11-03T03:18:14.291Z,1009.01
2017-11-03T03:19:14.291Z,1009.02
2017-11-03T03:20:14.277Z,1009.06
2017-11-03T03:21:14.273Z,1009.14
2017-11-03T03:22:14.261Z,1009.11
2017-11-03T03:23:14.256Z,1009.07
2017-11-03T03:24:14.249Z,1009.05
2017-11-03T03:25:14.243Z,1009.08
2017-11-03T03:26:14.238Z,1009.11
2017-11-03T03:27:14.219Z,1009.13
2017-11-03T03:28:14.218Z,1009.12
2017-11-03T03:29:14.215Z,1009.13
2017-11-03T03:30:14.208Z,1009.17
2017-11-03T03:31:14.201Z,1009.14
2017-11-03T03:32:14.189Z,1009.12
2017-11-03T03:33:14.186Z,1009.13
2017-11-03T03:34:14.180Z,1009.13
2017-11-03T03:35:14.171Z,1009.15
2017-11-03T03:36:14.179Z,1009.17
2017-11-03T03:37:14.157Z,1009.16
2017-11-03T03:38:14.151Z,1009.17
2017-11-03T03:39:14.142Z,1009.16
2017-11-03T03:40:14.135Z,1009.16
2017-11-03T03:41:14.130Z,1009.16
2017-11-03T03:42:14.121Z,1009.15
2017-11-03T03:43:14.113Z,1009.19
2017-11-03T03:44:14.108Z,1009.18
2017-11-03T03:45:14.103Z,1009.18
2017-11-03T03:46:14.091Z,1009.22
2017-11-03T03:47:14.082Z,1009.20
2017-11-03T03:48:14.082Z,1009.20
2017-11-03T03:49:14.070Z,1009.21
2017-11-03T03:50:14.060Z,1009.21
2017-11-03T03:51:14.046Z,1009.21
2017-11-03T03:52:14.047Z,1009.25
2017-11-03T03:53:14.041Z,1009.24
2017-11-03T03:54:14.032Z,1009.19
2017-11-03T03:55:14.026Z,1009.22
2017-11-03T03:56:14.015Z,1009.16
2017-11-03T03:57:14.010Z,1009.22
2017-11-03T03:58:14.002Z,1009.21
2017-11-03T03:59:13.995Z,1009.24
2017-11-03T04:00:13.990Z,1009.26
2017-11-03T04:01:13.979Z,1009.25
2017-11-03T04:02:13.974Z,1009.24
2017-11-03T04:03:13.964Z,1009.26
2017-11-03T04:04:13.960Z,1009.31
2017-11-03T04:05:13.953Z,1009.33
2017-11-03T04:06:13.946Z,1009.35
2017-11-03T04:07:13.938Z,1009.38
2017-11-03T04:08:13.931Z,1009.38
2017-11-03T04:09:13.918Z,1009.38
2017-11-03T04:10:13.915Z,1009.33
2017-11-03T04:11:13.903Z,1009.40
2017-11-03T04:12:13.898Z,1009.39
2017-11-03T04:13:13.892Z,1009.38
2017-11-03T04:14:13.886Z,1009.38
2017-11-03T04:15:13.879Z,1009.38
2017-11-03T04:16:13.872Z,1009.37
2017-11-03T04:17:13.880Z,1009.37
2017-11-03T04:18:13.857Z,1009.39
2017-11-03T04:19:13.854Z,1009.38
2017-11-03T04:20:13.841Z,1009.34
2017-11-03T04:21:13.834Z,1009.31
2017-11-03T04:22:13.827Z,1009.37
2017-11-03T04:23:13.816Z,1009.33
2017-11-03T04:24:13.833Z,1009.29
2017-11-03T04:25:13.807Z,1009.25
2017-11-03T04:26:13.792Z,1009.24
2017-11-03T04:27:13.792Z,1009.24
2017-11-03T04:28:13.777Z,1009.26
2017-11-03T04:29:13.774Z,1009.26
2017-11-03T04:30:13.768Z,1009.26
2017-11-03T04:31:13.755Z,1009.27
2017-11-03T04:32:13.752Z,1009.29
2017-11-03T04:33:13.747Z,1009.24
2017-11-03T04:34:13.736Z,1009.25
2017-11-03T04:35:13.730Z,1009.22
2017-11-03T04:36:13.720Z,1009.28
2017-11-03T04:37:13.715Z,1009.24
2017-11-03T04:38:13.705Z,1009.23
2017-11-03T04:39:13.696Z,1009.27
2017-11-03T04:40:13.689Z,1009.22
2017-11-03T04:41:13.679Z,1009.22
2017-11-03T04:42:13.676Z,1009.23
2017-11-03T04:43:13.666Z,1009.22
2017-11-03T04:44:13.663Z,1009.18
2017-11-03T04:45:13.657Z,1009.20
2017-11-03T04:46:13.657Z,1009.17
2017-11-03T04:47:13.636Z,1009.22
2017-11-03T04:48:13.628Z,1009.21
2017-11-03T04:49:13.622Z,1009.23
2017-11-03T04:50:13.611Z,1009.24
2017-11-03T04:51:13.611Z,1009.24
2017-11-03T04:52:13.598Z,1009.30
2017-11-03T04:53:13.592Z,1009.29
2017-11-03T04:54:13.583Z,1009.31
2017-11-03T04:55:13.576Z,1009.31
2017-11-03T04:56:13.567Z,1009.32
2017-11-03T04:57:13.579Z,1009.33
2017-11-03T04:58:13.555Z,1009.32
2017-11-03T04:59:13.545Z,1009.29
2017-11-03T05:00:13.536Z,1009.29
2017-11-03T05:01:13.533Z,1009.31
2017-11-03T05:02:13.520Z,1009.28
2017-11-03T05:03:13.514Z,1009.30
2017-11-03T05:04:13.504Z,1009.28
2017-11-03T05:05:13.495Z,1009.33
2017-11-03T05:06:13.497Z,1009.31
2017-11-03T05:07:13.495Z,1009.32
2017-11-03T05:08:13.477Z,1009.35
2017-11-03T05:09:13.470Z,1009.32
2017-11-03T05:10:13.465Z,1009.32
2017-11-03T05:11:13.454Z,1009.34
2017-11-03T05:12:13.443Z,1009.33
2017-11-03T05:13:13.442Z,1009.30
2017-11-03T05:14:13.432Z,1009.26
2017-11-03T05:15:13.423Z,1009.25
2017-11-03T05:16:13.416Z,1009.24
2017-11-03T05:17:13.405Z,1009.24
2017-11-03T05:18:13.401Z,1009.25
2017-11-03T05:19:13.393Z,1009.25
2017-11-03T05:20:13.394Z,1009.23
2017-11-03T05:21:13.380Z,1009.21
2017-11-03T05:22:13.368Z,1009.26
2017-11-03T05:23:13.359Z,1009.23
2017-11-03T05:24:13.351Z,1009.17
2017-11-03T05:25:13.346Z,1009.20
2017-11-03T05:26:13.339Z,1009.19
2017-11-03T05:27:13.331Z,1009.19
2017-11-03T05:28:13.322Z,1009.24
2017-11-03T05:29:13.316Z,1009.22
2017-11-03T05:30:13.308Z,1009.20
2017-11-03T05:31:13.299Z,1009.27
2017-11-03T05:32:13.288Z,1009.25
2017-11-03T05:33:13.284Z,1009.25
2017-11-03T05:34:13.276Z,1009.26
2017-11-03T05:35:13.266Z,1009.27
2017-11-03T05:36:13.261Z,1009.26
2017-11-03T05:37:13.250Z,1009.30
2017-11-03T05:38:13.246Z,1009.26
2017-11-03T05:39:13.236Z,1009.29
2017-11-03T05:40:13.228Z,1009.23
2017-11-03T05:41:13.222Z,1009.23
2017-11-03T05:42:13.211Z,1009.23
2017-11-03T05:43:13.205Z,1009.21
2017-11-03T05:44:13.198Z,1009.25
2017-11-03T05:45:13.188Z,1009.28
2017-11-03T05:46:13.184Z,1009.29
2017-11-03T05:47:13.177Z,1009.28
2017-11-03T05:48:13.167Z,1009.33
2017-11-03T05:49:13.161Z,1009.32
2017-11-03T05:50:13.152Z,1009.39
2017-11-03T05:51:13.146Z,1009.36
2017-11-03T05:52:13.133Z,1009.34
2017-11-03T05:53:13.131Z,1009.36
2017-11-03T05:54:13.125Z,1009.37
2017-11-03T05:55:13.112Z,1009.33
2017-11-03T05:56:13.106Z,1009.35
2017-11-03T05:57:13.101Z,1009.35
2017-11-03T05:58:13.093Z,1009.32
2017-11-03T05:59:13.084Z,1009.31
2017-11-03T06:00:13.076Z,1009.36
2017-11-03T06:01:13.066Z,1009.39
2017-11-03T06:02:13.056Z,1009.39
2017-11-03T06:03:13.049Z,1009.39
2017-11-03T06:04:13.044Z,1009.43
2017-11-03T06:05:13.034Z,1009.44
2017-11-03T06:06:13.018Z,1009.45
2017-11-03T06:07:13.019Z,1009.44
2017-11-03T06:08:13.011Z,1009.47
2017-11-03T06:09:13.002Z,1009.49
2017-11-03T06:10:12.997Z,1009.51
2017-11-03T06:11:12.987Z,1009.48
2017-11-03T06:12:12.978Z,1009.48
2017-11-03T06:13:12.976Z,1009.47
2017-11-03T06:14:12.969Z,1009.53
2017-11-03T06:15:12.957Z,1009.50
2017-11-03T06:16:12.950Z,1009.44
2017-11-03T06:17:12.941Z,1009.49
2017-11-03T06:18:12.935Z,1009.47
2017-11-03T06:19:12.945Z,1009.47
2017-11-03T06:20:12.918Z,1009.49
2017-11-03T06:21:12.922Z,1009.47
2017-11-03T06:22:12.901Z,1009.50
2017-11-03T06:23:12.892Z,1009.50
2017-11-03T06:24:12.887Z,1009.52
2017-11-03T06:25:12.879Z,1009.52
2017-11-03T06:26:12.874Z,1009.55
2017-11-03T06:27:12.863Z,1009.54
2017-11-03T06:28:12.856Z,1009.54
2017-11-03T06:29:12.849Z,1009.53
2017-11-03T06:30:12.856Z,1009.52
2017-11-03T06:31:12.828Z,1009.55
2017-11-03T06:32:12.824Z,1009.54
2017-11-03T06:33:12.817Z,1009.55
2017-11-03T06:34:12.810Z,1009.58
2017-11-03T06:35:12.807Z,1009.58
2017-11-03T06:36:12.838Z,1009.58
2017-11-03T06:37:12.786Z,1009.62
2017-11-03T06:38:12.779Z,1009.63
2017-11-03T06:39:12.776Z,1009.67
2017-11-03T06:40:12.763Z,1009.68
2017-11-03T06:41:12.752Z,1009.68
2017-11-03T06:42:12.750Z,1009.68
2017-11-03T06:43:12.737Z,1009.72
2017-11-03T06:44:12.729Z,1009.69
2017-11-03T06:45:12.723Z,1009.68
2017-11-03T06:46:12.716Z,1009.77
2017-11-03T06:47:12.709Z,1009.75
2017-11-03T06:48:12.702Z,1009.78
2017-11-03T06:49:12.692Z,1009.73
2017-11-03T06:50:12.684Z,1009.75
2017-11-03T06:51:12.679Z,1009.76
2017-11-03T06:52:12.668Z,1009.74
2017-11-03T06:53:12.658Z,1009.75
2017-11-03T06:54:12.652Z,1009.74
2017-11-03T06:55:12.646Z,1009.79
2017-11-03T06:56:12.634Z,1009.80
2017-11-03T06:57:12.629Z,1009.81
2017-11-03T06:58:12.623Z,1009.76
2017-11-03T06:59:12.617Z,1009.77
2017-11-03T07:00:12.606Z,1009.78
2017-11-03T07:01:12.598Z,1009.78
2017-11-03T07:02:12.594Z,1009.80
2017-11-03T07:03:12.591Z,1009.83
2017-11-03T07:04:12.580Z,1009.81
2017-11-03T07:05:12.569Z,1009.85
2017-11-03T07:06:12.561Z,1009.86
2017-11-03T07:07:12.543Z,1009.79
2017-11-03T07:08:12.544Z,1009.83
2017-11-03T07:09:12.541Z,1009.81
2017-11-03T07:10:12.533Z,1009.81
2017-11-03T07:11:12.522Z,1009.85
2017-11-03T07:12:12.512Z,1009.85
2017-11-03T07:13:12.506Z,1009.87
2017-11-03T07:14:12.495Z,1009.92
2017-11-03T07:15:12.489Z,1009.91
2017-11-03T07:16:12.493Z,1009.90
2017-11-03T07:17:12.474Z,1009.87
2017-11-03T07:18:12.465Z,1009.91
2017-11-03T07:19:12.464Z,1009.89
2017-11-03T07:20:12.450Z,1009.92
2017-11-03T07:21:12.444Z,1009.91
2017-11-03T07:22:12.438Z,1009.94
2017-11-03T07:23:12.427Z,1009.93
2017-11-03T07:24:12.422Z,1009.89
2017-11-03T07:25:12.413Z,1009.89
2017-11-03T07:26:12.401Z,1009.89
2017-11-03T07:27:12.394Z,1009.90
2017-11-03T07:28:12.386Z,1009.88
2017-11-03T07:29:12.382Z,1009.95
2017-11-03T07:30:12.374Z,1009.93
2017-11-03T07:31:12.364Z,1009.96
2017-11-03T07:32:12.362Z,1009.96
2017-11-03T07:33:12.349Z,1009.94
2017-11-03T07:34:12.338Z,1009.96
2017-11-03T07:35:12.336Z,1009.94
2017-11-03T07:36:12.328Z,1009.94
2017-11-03T07:37:12.317Z,1009.92
2017-11-03T07:38:12.311Z,1009.91
2017-11-03T07:39:12.303Z,1009.93
2017-11-03T07:40:12.295Z,1009.91
2017-11-03T07:41:12.289Z,1009.89
2017-11-03T07:42:12.283Z,1009.88
2017-11-03T07:43:12.277Z,1009.88
2017-11-03T07:44:12.255Z,1009.93
2017-11-03T07:45:12.260Z,1009.89
2017-11-03T07:46:12.247Z,1009.90
2017-11-03T07:47:12.241Z,1009.94
2017-11-03T07:48:12.237Z,1009.94
2017-11-03T07:49:12.226Z,1009.93
2017-11-03T07:50:12.221Z,1009.92
2017-11-03T07:51:12.211Z,1009.91
2017-11-03T07:52:12.207Z,1009.94
2017-11-03T07:53:12.201Z,1009.94
2017-11-03T07:54:12.193Z,1009.91
2017-11-03T07:55:12.179Z,1009.92
2017-11-03T07:56:12.170Z,1009.94
2017-11-03T07:57:12.171Z,1009.97
2017-11-03T07:58:12.165Z,1009.98
2017-11-03T07:59:12.154Z,1010.00
2017-11-03T08:00:12.143Z,1009.99
2017-11-03T08:01:12.133Z,1010.01
2017-11-03T08:02:12.123Z,1009.99
2017-11-03T08:03:12.129Z,1009.99
2017-11-03T08:04:12.111Z,1009.98
2017-11-03T08:05:12.103Z,1009.98
2017-11-03T08:06:12.096Z,1009.97
2017-11-03T08:07:12.088Z,1009.99
2017-11-03T08:08:12.081Z,1009.94
2017-11-03T08:09:12.071Z,1009.99
2017-11-03T08:10:12.068Z,1009.96
2017-11-03T08:11:12.059Z,1010.00
2017-11-03T08:12:12.050Z,1010.00
2017-11-03T08:13:12.042Z,1010.00
2017-11-03T08:14:12.037Z,1009.97
2017-11-03T08:15:12.025Z,1010.00
2017-11-03T08:16:12.023Z,1010.01
2017-11-03T08:17:12.012Z,1009.97
2017-11-03T08:18:12.006Z,1009.99
2017-11-03T08:19:11.995Z,1009.97
2017-11-03T08:20:11.990Z,1009.96
2017-11-03T08:21:11.981Z,1009.96
2017-11-03T08:22:11.974Z,1009.95
2017-11-03T08:23:11.967Z,1009.95
2017-11-03T08:24:11.959Z,1009.91
2017-11-03T08:25:11.955Z,1009.95
2017-11-03T08:26:11.944Z,1009.90
2017-11-03T08:27:11.963Z,1009.90
2017-11-03T08:28:11.929Z,1009.92
2017-11-03T08:29:11.923Z,1009.94
2017-11-03T08:30:11.913Z,1009.93
2017-11-03T08:31:11.911Z,1009.95
2017-11-03T08:32:11.898Z,1009.93
2017-11-03T08:33:11.894Z,1009.94
2017-11-03T08:34:11.882Z,1009.94
2017-11-03T08:35:11.876Z,1009.91
2017-11-03T08:36:11.866Z,1009.90
2017-11-03T08:37:11.862Z,1009.86
2017-11-03T08:38:11.860Z,1009.85
2017-11-03T08:39:11.853Z,1009.85
2017-11-03T08:40:11.842Z,1009.86
2017-11-03T08:41:11.830Z,1009.88
2017-11-03T08:42:11.826Z,1009.89
2017-11-03T08:43:11.815Z,1009.91
2017-11-03T08:44:11.809Z,1009.88
2017-11-03T08:45:11.802Z,1009.89
2017-11-03T08:46:11.803Z,1009.86
2017-11-03T08:47:11.788Z,1009.90
2017-11-03T08:48:11.778Z,1009.89
2017-11-03T08:49:11.777Z,1009.87
2017-11-03T08:50:11.764Z,1009.89
2017-11-03T08:51:11.756Z,1009.90
2017-11-03T08:52:11.751Z,1009.89
2017-11-03T08:53:11.744Z,1009.88
2017-11-03T08:54:11.727Z,1009.84
2017-11-03T08:55:11.728Z,1009.83
2017-11-03T08:56:11.717Z,1009.82
2017-11-03T08:57:11.715Z,1009.85
2017-11-03T08:58:11.706Z,1009.86
2017-11-03T08:59:11.698Z,1009.82
2017-11-03T09:00:11.690Z,1009.81
2017-11-03T09:01:11.687Z,1009.89
2017-11-03T09:02:11.677Z,1009.85
2017-11-03T09:03:11.668Z,1009.87
2017-11-03T09:04:11.659Z,1009.88
2017-11-03T09:05:11.676Z,1009.85
2017-11-03T09:06:11.650Z,1009.90
2017-11-03T09:07:11.642Z,1009.90
2017-11-03T09:08:11.631Z,1009.93
2017-11-03T09:09:11.624Z,1009.96
2017-11-03T09:10:11.620Z,1009.93
2017-11-03T09:11:11.613Z,1009.90
2017-11-03T09:12:11.608Z,1009.93
2017-11-03T09:13:11.597Z,1009.96
2017-11-03T09:14:11.589Z,1009.94
2017-11-03T09:15:11.592Z,1009.92
2017-11-03T09:16:11.581Z,1009.95
2017-11-03T09:17:11.577Z,1009.93
2017-11-03T09:18:11.571Z,1009.97
2017-11-03T09:19:11.557Z,1009.98
2017-11-03T09:20:11.549Z,1009.96
2017-11-03T09:21:11.531Z,1009.98
2017-11-03T09:22:11.525Z,1010.04
2017-11-03T09:23:11.518Z,1010.01
2017-11-03T09:24:11.519Z,1010.00
2017-11-03T09:25:11.515Z,1009.99
2017-11-03T09:26:11.516Z,1009.99
2017-11-03T09:27:11.497Z,1010.01
2017-11-03T09:28:11.502Z,1010.02
2017-11-03T09:29:11.494Z,1010.04
2017-11-03T09:30:11.487Z,1010.04
2017-11-03T09:31:11.469Z,1010.09
2017-11-03T09:32:11.464Z,1010.07
2017-11-03T09:33:11.450Z,1010.03
2017-11-03T09:34:11.445Z,1010.03
2017-11-03T09:35:11.447Z,1010.06
2017-11-03T09:36:11.437Z,1010.05
2017-11-03T09:37:11.427Z,1010.04
2017-11-03T09:38:11.425Z,1010.00
2017-11-03T09:39:11.417Z,1010.02
2017-11-03T09:40:11.410Z,1010.02
2017-11-03T09:41:11.398Z,1009.98
2017-11-03T09:42:11.397Z,1009.99
2017-11-03T09:43:11.386Z,1009.99
2017-11-03T09:44:11.376Z,1010.00
2017-11-03T09:45:11.370Z,1009.95
2017-11-03T09:46:11.374Z,1009.96
2017-11-03T09:47:11.361Z,1009.93
2017-11-03T09:48:11.356Z,1009.91
2017-11-03T09:49:11.352Z,1009.96
2017-11-03T09:50:12.393Z,1009.91
2017-11-03T09:51:11.333Z,1009.94
2017-11-03T09:52:11.325Z,1009.95
2017-11-03T09:53:11.332Z,1009.95
2017-11-03T09:54:11.312Z,1009.98
2017-11-03T09:55:11.307Z,1009.96
2017-11-03T09:56:11.303Z,1009.97
2017-11-03T09:57:11.298Z,1009.97
2017-11-03T09:58:11.288Z,1009.98
2017-11-03T09:59:11.282Z,1009.97
2017-11-03T10:00:11.276Z,1009.96
2017-11-03T10:01:11.268Z,1009.96
2017-11-03T10:02:11.264Z,1009.97
2017-11-03T10:03:11.264Z,1009.97
2017-11-03T10:04:11.248Z,1010.00
2017-11-03T10:05:11.244Z,1009.99
2017-11-03T10:06:11.236Z,1009.98
2017-11-03T10:07:11.229Z,1009.97
2017-11-03T10:08:11.221Z,1009.99
2017-11-03T10:09:11.213Z,1009.98
2017-11-03T10:10:11.210Z,1009.97
2017-11-03T10:11:11.210Z,1009.94
2017-11-03T10:12:11.194Z,1009.93
2017-11-03T10:13:11.197Z,1009.94
2017-11-03T10:14:11.187Z,1009.91
2017-11-03T10:15:11.180Z,1009.89
2017-11-03T10:16:11.171Z,1009.89
2017-11-03T10:17:11.164Z,1009.89
2017-11-03T10:18:11.157Z,1009.89
2017-11-03T10:19:11.151Z,1009.89
2017-11-03T10:20:11.147Z,1009.91
2017-11-03T10:21:11.143Z,1009.89
2017-11-03T10:22:11.134Z,1009.87
2017-11-03T10:23:11.125Z,1009.86
2017-11-03T10:24:11.122Z,1009.82
2017-11-03T10:25:11.114Z,1009.82
2017-11-03T10:26:11.110Z,1009.82
2017-11-03T10:27:11.108Z,1009.82
2017-11-03T10:28:11.100Z,1009.79
2017-11-03T10:29:11.091Z,1009.82
2017-11-03T10:30:11.085Z,1009.82
2017-11-03T10:31:11.076Z,1009.79
2017-11-03T10:32:11.078Z,1009.85
2017-11-03T10:33:11.066Z,1009.78
2017-11-03T10:34:11.059Z,1009.80
2017-11-03T10:35:11.054Z,1009.79
2017-11-03T10:36:11.051Z,1009.77
2017-11-03T10:37:11.039Z,1009.76
2017-11-03T10:38:11.037Z,1009.75
2017-11-03T10:39:11.026Z,1009.76
2017-11-03T10:40:11.022Z,1009.79
2017-11-03T10:41:11.017Z,1009.75
2017-11-03T10:42:11.010Z,1009.71
2017-11-03T10:43:11.001Z,1009.71
2017-11-03T10:44:10.999Z,1009.69
2017-11-03T10:45:10.992Z,1009.61
2017-11-03T10:46:10.991Z,1009.61
2017-11-03T10:47:10.980Z,1009.68
2017-11-03T10:48:10.972Z,1009.61
2017-11-03T10:49:10.966Z,1009.61
2017-11-03T10:50:10.962Z,1009.62
2017-11-03T10:51:10.955Z,1009.56
2017-11-03T10:52:10.950Z,1009.58
2017-11-03T10:53:10.944Z,1009.62
2017-11-03T10:54:10.939Z,1009.57
2017-11-03T10:55:10.933Z,1009.59
2017-11-03T10:56:10.927Z,1009.56
2017-11-03T10:57:10.921Z,1009.53
2017-11-03T10:58:10.919Z,1009.54
2017-11-03T10:59:10.907Z,1009.56
2017-11-03T11:00:10.903Z,1009.54
2017-11-03T11:01:10.897Z,1009.51
2017-11-03T11:02:10.894Z,1009.52
2017-11-03T11:03:10.885Z,1009.47
2017-11-03T11:04:10.881Z,1009.46
2017-11-03T11:05:10.875Z,1009.46
2017-11-03T11:06:10.869Z,1009.49
2017-11-03T11:07:10.864Z,1009.51
2017-11-03T11:08:10.857Z,1009.44
2017-11-03T11:09:10.852Z,1009.47
2017-11-03T11:10:10.858Z,1009.47
2017-11-03T11:11:10.841Z,1009.41
2017-11-03T11:12:10.841Z,1009.42
2017-11-03T11:13:10.829Z,1009.44
2017-11-03T11:14:10.826Z,1009.41
2017-11-03T11:15:10.818Z,1009.41
2017-11-03T11:16:10.812Z,1009.38
2017-11-03T11:17:10.807Z,1009.35
2017-11-03T11:18:10.804Z,1009.36
2017-11-03T11:19:10.820Z,1009.39
2017-11-03T11:20:10.791Z,1009.31
2017-11-03T11:21:10.788Z,1009.32
2017-11-03T11:22:10.779Z,1009.32
2017-11-03T11:23:10.773Z,1009.29
2017-11-03T11:24:10.769Z,1009.26
2017-11-03T11:25:10.761Z,1009.25
2017-11-03T11:26:10.755Z,1009.25
2017-11-03T11:27:10.752Z,1009.24
2017-11-03T11:28:10.744Z,1009.26
2017-11-03T11:29:10.744Z,1009.22
2017-11-03T11:30:10.733Z,1009.24
2017-11-03T11:31:10.736Z,1009.23
2017-11-03T11:32:10.731Z,1009.27
2017-11-03T11:33:10.716Z,1009.28
2017-11-03T11:34:10.713Z,1009.24
2017-11-03T11:35:10.707Z,1009.20
2017-11-03T11:36:10.721Z,1009.21
2017-11-03T11:37:10.706Z,1009.16
2017-11-03T11:38:10.693Z,1009.15
2017-11-03T11:39:10.686Z,1009.13
2017-11-03T11:40:10.680Z,1009.12
2017-11-03T11:41:10.681Z,1009.19
2017-11-03T11:42:10.669Z,1009.15
2017-11-03T11:43:10.662Z,1009.18
2017-11-03T11:44:10.668Z,1009.21
2017-11-03T11:45:10.658Z,1009.16
2017-11-03T11:46:10.648Z,1009.16
2017-11-03T11:47:10.643Z,1009.12
2017-11-03T11:48:10.635Z,1009.12
2017-11-03T11:49:10.632Z,1009.11
2017-11-03T11:50:10.627Z,1009.12
2017-11-03T11:51:10.622Z,1009.11
2017-11-03T11:52:10.640Z,1009.12
2017-11-03T11:53:10.610Z,1009.17
2017-11-03T11:54:10.604Z,1009.15
2017-11-03T11:55:10.599Z,1009.17
2017-11-03T11:56:10.595Z,1009.12
2017-11-03T11:57:10.591Z,1009.10
2017-11-03T11:58:10.582Z,1009.09
2017-11-03T11:59:10.578Z,1009.03
2017-11-03T12:00:10.573Z,1009.06
2017-11-03T12:01:10.568Z,1009.01
2017-11-03T12:02:10.564Z,1009.07
2017-11-03T12:03:10.555Z,1009.03
2017-11-03T12:04:10.554Z,1009.03
2017-11-03T12:05:10.551Z,1009.04